sensor_id;sensor_type;location;lat;lon;timestamp;P1;durP1;ratioP1;P2;durP2;ratioP2
23680;SDS011;62915;50.832;4.462;2023-03-03T00:01:09;33.03;;;20.63;;
23680;SDS011;62915;50.832;4.462;2023-03-03T00:03:35;33.53;;;19.85;;
23680;SDS011;62915;50.832;4.462;2023-03-03T00:06:01;34.97;;;19.45;;
23680;SDS011;62915;50.832;4.462;2023-03-03T00:08:28;31.30;;;18.75;;
23680;SDS011;62915;50.832;4.462;2023-03-03T00:10:56;33.20;;;18.70;;
23680;SDS011;62915;50.832;4.462;2023-03-03T00:13:23;31.85;;;19.88;;
23680;SDS011;62915;50.832;4.462;2023-03-03T00:15:50;33.15;;;19.95;;
23680;SDS011;62915;50.832;4.462;2023-03-03T00:18:21;35.83;;;19.88;;
23680;SDS011;62915;50.832;4.462;2023-03-03T00:21:01;33.72;;;18.58;;
23680;SDS011;62915;50.832;4.462;2023-03-03T00:23:39;29.92;;;18.38;;
23680;SDS011;62915;50.832;4.462;2023-03-03T00:26:53;29.75;;;18.92;;
23680;SDS011;62915;50.832;4.462;2023-03-03T00:28:58;35.03;;;19.45;;
23680;SDS011;62915;50.832;4.462;2023-03-03T00:31:28;27.52;;;18.40;;
23680;SDS011;62915;50.832;4.462;2023-03-03T00:33:55;32.70;;;19.13;;
23680;SDS011;62915;50.832;4.462;2023-03-03T00:36:27;32.78;;;19.85;;
23680;SDS011;62915;50.832;4.462;2023-03-03T00:41:52;33.33;;;20.40;;
23680;SDS011;62915;50.832;4.462;2023-03-03T00:47:27;34.90;;;20.05;;
23680;SDS011;62915;50.832;4.462;2023-03-03T00:52:36;34.33;;;19.80;;
23680;SDS011;62915;50.832;4.462;2023-03-03T00:55:03;32.03;;;19.95;;
23680;SDS011;62915;50.832;4.462;2023-03-03T00:57:30;32.65;;;19.15;;
23680;SDS011;62915;50.832;4.462;2023-03-03T00:59:55;30.67;;;19.40;;
23680;SDS011;62915;50.832;4.462;2023-03-03T01:02:21;35.55;;;21.02;;
23680;SDS011;62915;50.832;4.462;2023-03-03T01:04:51;33.00;;;19.75;;
23680;SDS011;62915;50.832;4.462;2023-03-03T01:07:17;34.83;;;20.52;;
23680;SDS011;62915;50.832;4.462;2023-03-03T01:09:43;34.67;;;18.98;;
23680;SDS011;62915;50.832;4.462;2023-03-03T01:12:09;36.40;;;20.55;;
23680;SDS011;62915;50.832;4.462;2023-03-03T01:14:36;34.17;;;19.75;;
23680;SDS011;62915;50.832;4.462;2023-03-03T01:17:02;33.70;;;18.80;;
23680;SDS011;62915;50.832;4.462;2023-03-03T01:19:28;30.95;;;18.38;;
23680;SDS011;62915;50.832;4.462;2023-03-03T01:21:54;32.92;;;19.50;;
23680;SDS011;62915;50.832;4.462;2023-03-03T01:24:20;32.35;;;19.85;;
23680;SDS011;62915;50.832;4.462;2023-03-03T01:26:45;34.33;;;18.75;;
23680;SDS011;62915;50.832;4.462;2023-03-03T01:29:11;31.90;;;19.27;;
23680;SDS011;62915;50.832;4.462;2023-03-03T01:31:37;36.15;;;19.60;;
23680;SDS011;62915;50.832;4.462;2023-03-03T01:34:03;32.03;;;18.48;;
23680;SDS011;62915;50.832;4.462;2023-03-03T01:36:28;34.10;;;19.33;;
23680;SDS011;62915;50.832;4.462;2023-03-03T01:38:54;34.08;;;19.90;;
23680;SDS011;62915;50.832;4.462;2023-03-03T01:41:21;29.48;;;18.30;;
23680;SDS011;62915;50.832;4.462;2023-03-03T01:43:48;36.33;;;20.25;;
23680;SDS011;62915;50.832;4.462;2023-03-03T01:46:57;30.42;;;19.10;;
23680;SDS011;62915;50.832;4.462;2023-03-03T01:49:10;32.88;;;18.60;;
23680;SDS011;62915;50.832;4.462;2023-03-03T01:51:51;35.22;;;20.02;;
23680;SDS011;62915;50.832;4.462;2023-03-03T01:54:25;34.10;;;19.08;;
23680;SDS011;62915;50.832;4.462;2023-03-03T01:57:10;34.70;;;20.08;;
23680;SDS011;62915;50.832;4.462;2023-03-03T01:59:41;34.95;;;19.98;;
23680;SDS011;62915;50.832;4.462;2023-03-03T02:02:11;32.20;;;18.98;;
23680;SDS011;62915;50.832;4.462;2023-03-03T02:04:37;36.33;;;19.52;;
23680;SDS011;62915;50.832;4.462;2023-03-03T02:07:07;36.25;;;19.13;;
23680;SDS011;62915;50.832;4.462;2023-03-03T02:12:25;32.50;;;18.95;;
23680;SDS011;62915;50.832;4.462;2023-03-03T02:14:57;34.08;;;19.90;;
23680;SDS011;62915;50.832;4.462;2023-03-03T02:17:23;32.40;;;19.48;;
23680;SDS011;62915;50.832;4.462;2023-03-03T02:20:04;31.98;;;19.02;;
23680;SDS011;62915;50.832;4.462;2023-03-03T02:22:38;36.35;;;20.17;;
23680;SDS011;62915;50.832;4.462;2023-03-03T02:25:12;35.03;;;20.27;;
23680;SDS011;62915;50.832;4.462;2023-03-03T02:27:45;35.08;;;18.88;;
23680;SDS011;62915;50.832;4.462;2023-03-03T02:30:19;33.70;;;19.05;;
23680;SDS011;62915;50.832;4.462;2023-03-03T02:32:46;34.42;;;19.38;;
23680;SDS011;62915;50.832;4.462;2023-03-03T02:37:49;33.30;;;18.88;;
23680;SDS011;62915;50.832;4.462;2023-03-03T02:40:16;36.50;;;20.27;;
23680;SDS011;62915;50.832;4.462;2023-03-03T02:42:46;33.42;;;19.65;;
23680;SDS011;62915;50.832;4.462;2023-03-03T02:45:15;32.92;;;18.67;;
23680;SDS011;62915;50.832;4.462;2023-03-03T02:47:47;35.63;;;20.45;;
23680;SDS011;62915;50.832;4.462;2023-03-03T02:50:15;33.08;;;19.00;;
23680;SDS011;62915;50.832;4.462;2023-03-03T02:52:40;35.38;;;20.02;;
23680;SDS011;62915;50.832;4.462;2023-03-03T02:55:06;36.53;;;20.33;;
23680;SDS011;62915;50.832;4.462;2023-03-03T02:57:32;35.25;;;20.50;;
23680;SDS011;62915;50.832;4.462;2023-03-03T02:59:58;40.58;;;20.45;;
23680;SDS011;62915;50.832;4.462;2023-03-03T03:02:24;46.58;;;22.35;;
23680;SDS011;62915;50.832;4.462;2023-03-03T03:04:51;45.15;;;23.63;;
23680;SDS011;62915;50.832;4.462;2023-03-03T03:07:17;51.80;;;24.52;;
23680;SDS011;62915;50.832;4.462;2023-03-03T03:09:42;45.38;;;24.95;;
23680;SDS011;62915;50.832;4.462;2023-03-03T03:12:08;49.72;;;24.50;;
23680;SDS011;62915;50.832;4.462;2023-03-03T03:14:34;49.70;;;25.98;;
23680;SDS011;62915;50.832;4.462;2023-03-03T03:17:00;50.00;;;25.48;;
23680;SDS011;62915;50.832;4.462;2023-03-03T03:19:26;51.70;;;26.70;;
23680;SDS011;62915;50.832;4.462;2023-03-03T03:21:52;52.00;;;26.50;;
23680;SDS011;62915;50.832;4.462;2023-03-03T03:24:18;50.85;;;25.67;;
23680;SDS011;62915;50.832;4.462;2023-03-03T03:26:44;52.97;;;25.85;;
23680;SDS011;62915;50.832;4.462;2023-03-03T03:29:09;50.08;;;26.52;;
23680;SDS011;62915;50.832;4.462;2023-03-03T03:31:35;64.20;;;29.45;;
23680;SDS011;62915;50.832;4.462;2023-03-03T03:34:02;56.13;;;27.58;;
23680;SDS011;62915;50.832;4.462;2023-03-03T03:36:27;57.08;;;29.00;;
23680;SDS011;62915;50.832;4.462;2023-03-03T03:38:53;58.45;;;28.38;;
23680;SDS011;62915;50.832;4.462;2023-03-03T03:41:19;57.15;;;30.17;;
23680;SDS011;62915;50.832;4.462;2023-03-03T03:43:44;61.70;;;28.77;;
23680;SDS011;62915;50.832;4.462;2023-03-03T03:46:10;54.53;;;28.55;;
23680;SDS011;62915;50.832;4.462;2023-03-03T03:48:37;52.85;;;28.10;;
23680;SDS011;62915;50.832;4.462;2023-03-03T03:51:02;57.75;;;26.63;;
23680;SDS011;62915;50.832;4.462;2023-03-03T03:53:30;55.40;;;29.48;;
23680;SDS011;62915;50.832;4.462;2023-03-03T03:55:55;50.88;;;27.13;;
23680;SDS011;62915;50.832;4.462;2023-03-03T03:58:21;55.50;;;26.73;;
23680;SDS011;62915;50.832;4.462;2023-03-03T04:00:47;55.80;;;27.42;;
23680;SDS011;62915;50.832;4.462;2023-03-03T04:03:13;54.45;;;27.90;;
23680;SDS011;62915;50.832;4.462;2023-03-03T04:05:39;57.58;;;27.67;;
23680;SDS011;62915;50.832;4.462;2023-03-03T04:08:05;60.95;;;30.00;;
23680;SDS011;62915;50.832;4.462;2023-03-03T04:10:31;62.78;;;30.02;;
23680;SDS011;62915;50.832;4.462;2023-03-03T04:12:57;58.45;;;28.48;;
23680;SDS011;62915;50.832;4.462;2023-03-03T04:15:22;58.85;;;28.02;;
23680;SDS011;62915;50.832;4.462;2023-03-03T04:17:48;64.07;;;29.65;;
23680;SDS011;62915;50.832;4.462;2023-03-03T04:20:14;61.83;;;29.63;;
23680;SDS011;62915;50.832;4.462;2023-03-03T04:22:40;60.45;;;29.20;;
23680;SDS011;62915;50.832;4.462;2023-03-03T04:25:07;55.10;;;27.80;;
23680;SDS011;62915;50.832;4.462;2023-03-03T04:27:37;53.30;;;26.38;;
23680;SDS011;62915;50.832;4.462;2023-03-03T04:30:03;54.30;;;26.80;;
23680;SDS011;62915;50.832;4.462;2023-03-03T04:32:29;56.88;;;28.25;;
23680;SDS011;62915;50.832;4.462;2023-03-03T04:34:57;53.45;;;27.50;;
23680;SDS011;62915;50.832;4.462;2023-03-03T04:37:23;49.10;;;26.30;;
23680;SDS011;62915;50.832;4.462;2023-03-03T04:39:49;52.40;;;26.65;;
23680;SDS011;62915;50.832;4.462;2023-03-03T04:42:15;49.88;;;27.45;;
23680;SDS011;62915;50.832;4.462;2023-03-03T04:44:41;57.10;;;27.33;;
23680;SDS011;62915;50.832;4.462;2023-03-03T04:47:07;51.10;;;26.08;;
23680;SDS011;62915;50.832;4.462;2023-03-03T04:49:32;54.70;;;27.73;;
23680;SDS011;62915;50.832;4.462;2023-03-03T04:51:58;53.30;;;26.17;;
23680;SDS011;62915;50.832;4.462;2023-03-03T04:54:24;52.47;;;26.95;;
23680;SDS011;62915;50.832;4.462;2023-03-03T04:56:49;54.58;;;26.60;;
23680;SDS011;62915;50.832;4.462;2023-03-03T04:59:15;55.15;;;25.92;;
23680;SDS011;62915;50.832;4.462;2023-03-03T05:01:41;60.28;;;28.23;;
23680;SDS011;62915;50.832;4.462;2023-03-03T05:04:06;55.60;;;26.38;;
23680;SDS011;62915;50.832;4.462;2023-03-03T05:06:32;55.92;;;27.20;;
23680;SDS011;62915;50.832;4.462;2023-03-03T05:08:58;50.08;;;25.60;;
23680;SDS011;62915;50.832;4.462;2023-03-03T05:11:24;56.28;;;26.77;;
23680;SDS011;62915;50.832;4.462;2023-03-03T05:13:49;50.83;;;25.70;;
23680;SDS011;62915;50.832;4.462;2023-03-03T05:16:15;49.85;;;24.60;;
23680;SDS011;62915;50.832;4.462;2023-03-03T05:18:41;56.03;;;25.80;;
23680;SDS011;62915;50.832;4.462;2023-03-03T05:21:07;47.22;;;24.80;;
23680;SDS011;62915;50.832;4.462;2023-03-03T05:23:32;52.80;;;26.17;;
23680;SDS011;62915;50.832;4.462;2023-03-03T05:25:58;47.75;;;25.35;;
23680;SDS011;62915;50.832;4.462;2023-03-03T05:28:24;54.45;;;26.13;;
23680;SDS011;62915;50.832;4.462;2023-03-03T05:30:50;51.30;;;24.95;;
23680;SDS011;62915;50.832;4.462;2023-03-03T05:33:15;49.47;;;24.98;;
23680;SDS011;62915;50.832;4.462;2023-03-03T05:35:42;50.35;;;24.92;;
23680;SDS011;62915;50.832;4.462;2023-03-03T05:38:08;48.13;;;24.63;;
23680;SDS011;62915;50.832;4.462;2023-03-03T05:40:34;50.38;;;24.20;;
23680;SDS011;62915;50.832;4.462;2023-03-03T05:43:00;44.28;;;23.27;;
23680;SDS011;62915;50.832;4.462;2023-03-03T05:45:26;50.13;;;25.35;;
23680;SDS011;62915;50.832;4.462;2023-03-03T05:47:52;51.25;;;25.83;;
23680;SDS011;62915;50.832;4.462;2023-03-03T05:50:19;47.40;;;25.02;;
23680;SDS011;62915;50.832;4.462;2023-03-03T05:52:46;48.05;;;25.95;;
23680;SDS011;62915;50.832;4.462;2023-03-03T05:55:14;48.80;;;25.17;;
23680;SDS011;62915;50.832;4.462;2023-03-03T05:57:40;54.70;;;26.17;;
23680;SDS011;62915;50.832;4.462;2023-03-03T06:00:06;48.72;;;25.23;;
23680;SDS011;62915;50.832;4.462;2023-03-03T06:02:33;49.85;;;25.02;;
23680;SDS011;62915;50.832;4.462;2023-03-03T06:04:59;49.30;;;25.80;;
23680;SDS011;62915;50.832;4.462;2023-03-03T06:07:25;50.58;;;25.10;;
23680;SDS011;62915;50.832;4.462;2023-03-03T06:09:50;52.60;;;26.15;;
23680;SDS011;62915;50.832;4.462;2023-03-03T06:12:16;46.30;;;24.63;;
23680;SDS011;62915;50.832;4.462;2023-03-03T06:14:42;44.85;;;25.52;;
23680;SDS011;62915;50.832;4.462;2023-03-03T06:17:07;45.40;;;24.75;;
23680;SDS011;62915;50.832;4.462;2023-03-03T06:19:34;42.47;;;23.45;;
23680;SDS011;62915;50.832;4.462;2023-03-03T06:22:01;44.65;;;23.95;;
23680;SDS011;62915;50.832;4.462;2023-03-03T06:24:26;48.33;;;24.88;;
23680;SDS011;62915;50.832;4.462;2023-03-03T06:26:57;45.40;;;24.33;;
23680;SDS011;62915;50.832;4.462;2023-03-03T06:29:23;46.72;;;24.80;;
23680;SDS011;62915;50.832;4.462;2023-03-03T06:31:49;52.17;;;25.40;;
23680;SDS011;62915;50.832;4.462;2023-03-03T06:34:15;46.92;;;24.73;;
23680;SDS011;62915;50.832;4.462;2023-03-03T06:36:40;48.72;;;26.00;;
23680;SDS011;62915;50.832;4.462;2023-03-03T06:39:06;48.03;;;25.42;;
23680;SDS011;62915;50.832;4.462;2023-03-03T06:41:32;134.23;;;39.40;;
23680;SDS011;62915;50.832;4.462;2023-03-03T06:43:58;46.75;;;25.33;;
23680;SDS011;62915;50.832;4.462;2023-03-03T06:46:24;113.47;;;34.10;;
23680;SDS011;62915;50.832;4.462;2023-03-03T06:48:51;57.53;;;26.77;;
23680;SDS011;62915;50.832;4.462;2023-03-03T06:51:30;70.25;;;26.85;;
23680;SDS011;62915;50.832;4.462;2023-03-03T06:54:23;81.22;;;29.83;;
23680;SDS011;62915;50.832;4.462;2023-03-03T06:56:51;46.08;;;23.98;;
23680;SDS011;62915;50.832;4.462;2023-03-03T06:59:22;45.70;;;23.55;;
23680;SDS011;62915;50.832;4.462;2023-03-03T07:01:48;56.22;;;26.05;;
23680;SDS011;62915;50.832;4.462;2023-03-03T07:06:59;79.53;;;29.63;;
23680;SDS011;62915;50.832;4.462;2023-03-03T07:09:35;49.70;;;25.70;;
23680;SDS011;62915;50.832;4.462;2023-03-03T07:12:01;58.25;;;28.15;;
23680;SDS011;62915;50.832;4.462;2023-03-03T07:14:34;58.70;;;27.17;;
23680;SDS011;62915;50.832;4.462;2023-03-03T07:17:09;53.88;;;26.63;;
23680;SDS011;62915;50.832;4.462;2023-03-03T07:19:42;54.67;;;26.27;;
23680;SDS011;62915;50.832;4.462;2023-03-03T07:24:43;56.80;;;26.33;;
23680;SDS011;62915;50.832;4.462;2023-03-03T07:27:12;66.78;;;26.70;;
23680;SDS011;62915;50.832;4.462;2023-03-03T07:29:51;80.25;;;29.30;;
23680;SDS011;62915;50.832;4.462;2023-03-03T07:34:50;52.55;;;24.50;;
23680;SDS011;62915;50.832;4.462;2023-03-03T07:39:53;55.72;;;25.65;;
23680;SDS011;62915;50.832;4.462;2023-03-03T07:44:55;53.67;;;25.17;;
23680;SDS011;62915;50.832;4.462;2023-03-03T07:47:26;43.83;;;23.73;;
23680;SDS011;62915;50.832;4.462;2023-03-03T07:49:55;54.55;;;23.85;;
23680;SDS011;62915;50.832;4.462;2023-03-03T07:52:30;44.47;;;23.50;;
23680;SDS011;62915;50.832;4.462;2023-03-03T07:55:00;45.17;;;23.25;;
23680;SDS011;62915;50.832;4.462;2023-03-03T07:57:42;45.05;;;23.13;;
23680;SDS011;62915;50.832;4.462;2023-03-03T08:10:42;44.92;;;24.02;;
23680;SDS011;62915;50.832;4.462;2023-03-03T08:13:57;52.28;;;24.38;;
23680;SDS011;62915;50.832;4.462;2023-03-03T08:16:03;46.83;;;23.85;;
23680;SDS011;62915;50.832;4.462;2023-03-03T08:18:50;47.65;;;23.52;;
23680;SDS011;62915;50.832;4.462;2023-03-03T08:21:21;49.88;;;23.88;;
23680;SDS011;62915;50.832;4.462;2023-03-03T08:23:51;49.72;;;25.17;;
23680;SDS011;62915;50.832;4.462;2023-03-03T08:26:21;49.53;;;24.17;;
23680;SDS011;62915;50.832;4.462;2023-03-03T08:28:48;47.97;;;23.63;;
23680;SDS011;62915;50.832;4.462;2023-03-03T08:31:14;45.85;;;24.13;;
23680;SDS011;62915;50.832;4.462;2023-03-03T08:33:41;49.28;;;23.95;;
23680;SDS011;62915;50.832;4.462;2023-03-03T08:36:08;45.08;;;23.98;;
23680;SDS011;62915;50.832;4.462;2023-03-03T08:38:34;48.25;;;24.27;;
23680;SDS011;62915;50.832;4.462;2023-03-03T08:40:59;42.78;;;23.40;;
23680;SDS011;62915;50.832;4.462;2023-03-03T08:43:25;47.63;;;22.90;;
23680;SDS011;62915;50.832;4.462;2023-03-03T08:45:52;42.90;;;21.75;;
23680;SDS011;62915;50.832;4.462;2023-03-03T08:48:22;44.15;;;22.42;;
23680;SDS011;62915;50.832;4.462;2023-03-03T08:50:48;43.40;;;22.30;;
23680;SDS011;62915;50.832;4.462;2023-03-03T08:53:14;48.83;;;24.05;;
23680;SDS011;62915;50.832;4.462;2023-03-03T08:55:40;42.08;;;21.45;;
23680;SDS011;62915;50.832;4.462;2023-03-03T08:58:07;40.58;;;21.80;;
23680;SDS011;62915;50.832;4.462;2023-03-03T09:00:32;42.03;;;21.88;;
23680;SDS011;62915;50.832;4.462;2023-03-03T09:02:58;37.50;;;19.15;;
23680;SDS011;62915;50.832;4.462;2023-03-03T09:05:24;39.80;;;20.33;;
23680;SDS011;62915;50.832;4.462;2023-03-03T09:07:50;35.20;;;18.73;;
23680;SDS011;62915;50.832;4.462;2023-03-03T09:10:19;38.13;;;19.23;;
23680;SDS011;62915;50.832;4.462;2023-03-03T09:12:51;33.83;;;17.77;;
23680;SDS011;62915;50.832;4.462;2023-03-03T09:15:25;36.67;;;18.90;;
23680;SDS011;62915;50.832;4.462;2023-03-03T09:17:53;37.95;;;18.45;;
23680;SDS011;62915;50.832;4.462;2023-03-03T09:20:38;32.97;;;18.65;;
23680;SDS011;62915;50.832;4.462;2023-03-03T09:25:51;42.20;;;19.50;;
23680;SDS011;62915;50.832;4.462;2023-03-03T09:28:27;36.72;;;19.10;;
23680;SDS011;62915;50.832;4.462;2023-03-03T09:31:01;38.03;;;19.35;;
23680;SDS011;62915;50.832;4.462;2023-03-03T09:33:46;35.38;;;18.50;;
23680;SDS011;62915;50.832;4.462;2023-03-03T09:38:44;32.75;;;18.00;;
23680;SDS011;62915;50.832;4.462;2023-03-03T09:49:25;33.13;;;18.52;;
23680;SDS011;62915;50.832;4.462;2023-03-03T09:55:16;38.70;;;18.52;;
23680;SDS011;62915;50.832;4.462;2023-03-03T10:03:38;37.75;;;18.40;;
23680;SDS011;62915;50.832;4.462;2023-03-03T10:12:00;38.55;;;18.42;;
23680;SDS011;62915;50.832;4.462;2023-03-03T10:14:45;43.55;;;19.25;;
23680;SDS011;62915;50.832;4.462;2023-03-03T10:17:27;45.13;;;19.63;;
23680;SDS011;62915;50.832;4.462;2023-03-03T10:20:11;39.17;;;18.95;;
23680;SDS011;62915;50.832;4.462;2023-03-03T10:23:14;37.70;;;18.80;;
23680;SDS011;62915;50.832;4.462;2023-03-03T10:37:41;42.35;;;18.00;;
23680;SDS011;62915;50.832;4.462;2023-03-03T10:49:13;39.63;;;18.17;;
23680;SDS011;62915;50.832;4.462;2023-03-03T10:54:37;42.97;;;18.10;;
23680;SDS011;62915;50.832;4.462;2023-03-03T11:08:00;45.85;;;18.30;;
23680;SDS011;62915;50.832;4.462;2023-03-03T11:19:15;36.13;;;17.30;;
23680;SDS011;62915;50.832;4.462;2023-03-03T11:35:44;35.72;;;17.55;;
23680;SDS011;62915;50.832;4.462;2023-03-03T11:41:13;42.60;;;18.40;;
23680;SDS011;62915;50.832;4.462;2023-03-03T11:43:54;31.92;;;17.02;;
23680;SDS011;62915;50.832;4.462;2023-03-03T11:46:25;38.67;;;19.05;;
23680;SDS011;62915;50.832;4.462;2023-03-03T11:54:26;36.63;;;17.13;;
23680;SDS011;62915;50.832;4.462;2023-03-03T11:57:29;34.08;;;17.13;;
23680;SDS011;62915;50.832;4.462;2023-03-03T12:10:31;34.33;;;17.00;;
23680;SDS011;62915;50.832;4.462;2023-03-03T12:19:14;31.80;;;16.48;;
23680;SDS011;62915;50.832;4.462;2023-03-03T12:33:02;33.13;;;16.38;;
23680;SDS011;62915;50.832;4.462;2023-03-03T12:41:02;32.28;;;15.93;;
23680;SDS011;62915;50.832;4.462;2023-03-03T12:46:58;31.17;;;15.98;;
23680;SDS011;62915;50.832;4.462;2023-03-03T12:49:30;31.85;;;16.75;;
23680;SDS011;62915;50.832;4.462;2023-03-03T12:52:08;26.80;;;15.48;;
23680;SDS011;62915;50.832;4.462;2023-03-03T12:55:00;33.45;;;16.20;;
23680;SDS011;62915;50.832;4.462;2023-03-03T12:57:47;28.38;;;14.75;;
23680;SDS011;62915;50.832;4.462;2023-03-03T13:00:29;32.05;;;16.40;;
23680;SDS011;62915;50.832;4.462;2023-03-03T13:03:28;28.80;;;15.07;;
23680;SDS011;62915;50.832;4.462;2023-03-03T13:06:10;27.42;;;15.50;;
23680;SDS011;62915;50.832;4.462;2023-03-03T13:08:54;28.73;;;15.07;;
23680;SDS011;62915;50.832;4.462;2023-03-03T13:12:17;28.50;;;15.23;;
23680;SDS011;62915;50.832;4.462;2023-03-03T13:17:14;27.10;;;15.68;;
23680;SDS011;62915;50.832;4.462;2023-03-03T13:19:56;28.70;;;13.88;;
23680;SDS011;62915;50.832;4.462;2023-03-03T13:22:34;33.17;;;17.13;;
23680;SDS011;62915;50.832;4.462;2023-03-03T13:27:59;26.77;;;14.73;;
23680;SDS011;62915;50.832;4.462;2023-03-03T13:30:54;29.60;;;15.20;;
23680;SDS011;62915;50.832;4.462;2023-03-03T13:35:53;30.13;;;15.88;;
23680;SDS011;62915;50.832;4.462;2023-03-03T13:38:20;27.08;;;14.88;;
23680;SDS011;62915;50.832;4.462;2023-03-03T13:43:25;30.52;;;15.57;;
23680;SDS011;62915;50.832;4.462;2023-03-03T13:53:57;27.45;;;15.85;;
23680;SDS011;62915;50.832;4.462;2023-03-03T13:56:53;31.90;;;15.93;;
23680;SDS011;62915;50.832;4.462;2023-03-03T14:07:29;23.77;;;14.10;;
23680;SDS011;62915;50.832;4.462;2023-03-03T14:12:33;26.73;;;14.65;;
23680;SDS011;62915;50.832;4.462;2023-03-03T14:20:28;27.30;;;14.50;;
23680;SDS011;62915;50.832;4.462;2023-03-03T14:25:23;26.15;;;14.80;;
23680;SDS011;62915;50.832;4.462;2023-03-03T14:27:53;26.23;;;14.02;;
23680;SDS011;62915;50.832;4.462;2023-03-03T14:30:41;28.40;;;15.35;;
23680;SDS011;62915;50.832;4.462;2023-03-03T14:35:43;23.73;;;13.77;;
23680;SDS011;62915;50.832;4.462;2023-03-03T14:38:35;22.80;;;13.02;;
23680;SDS011;62915;50.832;4.462;2023-03-03T14:41:12;24.85;;;12.52;;
23680;SDS011;62915;50.832;4.462;2023-03-03T14:48:54;24.75;;;13.23;;
23680;SDS011;62915;50.832;4.462;2023-03-03T14:51:25;24.85;;;13.07;;
23680;SDS011;62915;50.832;4.462;2023-03-03T14:53:53;24.27;;;13.43;;
23680;SDS011;62915;50.832;4.462;2023-03-03T14:56:23;23.48;;;13.18;;
23680;SDS011;62915;50.832;4.462;2023-03-03T14:58:50;22.33;;;12.68;;
23680;SDS011;62915;50.832;4.462;2023-03-03T15:01:32;24.38;;;13.00;;
23680;SDS011;62915;50.832;4.462;2023-03-03T15:04:03;22.90;;;12.75;;
23680;SDS011;62915;50.832;4.462;2023-03-03T15:06:50;20.27;;;10.88;;
23680;SDS011;62915;50.832;4.462;2023-03-03T15:11:50;20.13;;;11.35;;
23680;SDS011;62915;50.832;4.462;2023-03-03T15:14:22;19.67;;;10.85;;
23680;SDS011;62915;50.832;4.462;2023-03-03T15:16:56;21.50;;;10.57;;
23680;SDS011;62915;50.832;4.462;2023-03-03T15:19:48;21.48;;;11.55;;
23680;SDS011;62915;50.832;4.462;2023-03-03T15:22:21;17.40;;;9.45;;
23680;SDS011;62915;50.832;4.462;2023-03-03T15:25:11;17.63;;;10.55;;
23680;SDS011;62915;50.832;4.462;2023-03-03T15:27:47;22.38;;;10.68;;
23680;SDS011;62915;50.832;4.462;2023-03-03T15:36:24;18.50;;;10.55;;
23680;SDS011;62915;50.832;4.462;2023-03-03T15:52:17;18.35;;;10.95;;
23680;SDS011;62915;50.832;4.462;2023-03-03T15:57:37;18.77;;;10.35;;
23680;SDS011;62915;50.832;4.462;2023-03-03T16:00:32;20.38;;;10.60;;
23680;SDS011;62915;50.832;4.462;2023-03-03T16:03:31;16.90;;;10.32;;
23680;SDS011;62915;50.832;4.462;2023-03-03T16:17:04;16.63;;;8.63;;
23680;SDS011;62915;50.832;4.462;2023-03-03T16:19:55;14.55;;;9.25;;
23680;SDS011;62915;50.832;4.462;2023-03-03T16:22:33;14.40;;;9.68;;
23680;SDS011;62915;50.832;4.462;2023-03-03T16:28:14;16.13;;;9.48;;
23680;SDS011;62915;50.832;4.462;2023-03-03T16:36:06;17.98;;;9.57;;
23680;SDS011;62915;50.832;4.462;2023-03-03T16:38:39;17.05;;;9.82;;
23680;SDS011;62915;50.832;4.462;2023-03-03T16:41:53;15.95;;;9.15;;
23680;SDS011;62915;50.832;4.462;2023-03-03T16:47:37;14.57;;;8.68;;
23680;SDS011;62915;50.832;4.462;2023-03-03T16:52:42;13.75;;;9.32;;
23680;SDS011;62915;50.832;4.462;2023-03-03T16:55:20;13.30;;;9.02;;
23680;SDS011;62915;50.832;4.462;2023-03-03T17:00:58;15.95;;;9.95;;
23680;SDS011;62915;50.832;4.462;2023-03-03T17:06:09;22.67;;;10.32;;
23680;SDS011;62915;50.832;4.462;2023-03-03T17:17:56;15.77;;;10.13;;
23680;SDS011;62915;50.832;4.462;2023-03-03T17:20:22;17.48;;;10.07;;
23680;SDS011;62915;50.832;4.462;2023-03-03T17:23:14;15.38;;;9.63;;
23680;SDS011;62915;50.832;4.462;2023-03-03T17:31:26;16.98;;;10.05;;
23680;SDS011;62915;50.832;4.462;2023-03-03T17:34:05;15.13;;;9.35;;
23680;SDS011;62915;50.832;4.462;2023-03-03T17:45:14;18.65;;;10.63;;
23680;SDS011;62915;50.832;4.462;2023-03-03T17:53:33;14.75;;;10.48;;
23680;SDS011;62915;50.832;4.462;2023-03-03T18:07:11;13.32;;;8.90;;
23680;SDS011;62915;50.832;4.462;2023-03-03T18:15:29;13.52;;;9.80;;
23680;SDS011;62915;50.832;4.462;2023-03-03T18:25:59;16.10;;;9.98;;
23680;SDS011;62915;50.832;4.462;2023-03-03T18:28:46;17.17;;;9.80;;
23680;SDS011;62915;50.832;4.462;2023-03-03T18:31:18;15.63;;;9.48;;
23680;SDS011;62915;50.832;4.462;2023-03-03T18:34:10;14.10;;;9.15;;
23680;SDS011;62915;50.832;4.462;2023-03-03T18:37:10;14.13;;;7.97;;
23680;SDS011;62915;50.832;4.462;2023-03-03T18:42:31;19.88;;;10.75;;
23680;SDS011;62915;50.832;4.462;2023-03-03T18:53:14;17.92;;;9.18;;
23680;SDS011;62915;50.832;4.462;2023-03-03T18:55:45;13.98;;;9.07;;
23680;SDS011;62915;50.832;4.462;2023-03-03T19:00:49;15.25;;;9.00;;
23680;SDS011;62915;50.832;4.462;2023-03-03T19:05:56;14.25;;;9.35;;
23680;SDS011;62915;50.832;4.462;2023-03-03T19:08:25;14.52;;;9.43;;
23680;SDS011;62915;50.832;4.462;2023-03-03T19:14:50;13.52;;;9.18;;
23680;SDS011;62915;50.832;4.462;2023-03-03T19:16:54;13.07;;;8.75;;
23680;SDS011;62915;50.832;4.462;2023-03-03T19:19:24;13.90;;;9.82;;
23680;SDS011;62915;50.832;4.462;2023-03-03T19:30:44;14.88;;;11.05;;
23680;SDS011;62915;50.832;4.462;2023-03-03T19:39:10;14.70;;;10.60;;
23680;SDS011;62915;50.832;4.462;2023-03-03T19:42:04;15.20;;;10.40;;
23680;SDS011;62915;50.832;4.462;2023-03-03T19:53:50;15.63;;;9.23;;
23680;SDS011;62915;50.832;4.462;2023-03-03T20:04:09;17.77;;;9.32;;
23680;SDS011;62915;50.832;4.462;2023-03-03T20:09:46;19.23;;;10.32;;
23680;SDS011;62915;50.832;4.462;2023-03-03T20:18:08;15.05;;;9.40;;
23680;SDS011;62915;50.832;4.462;2023-03-03T20:36:59;10.35;;;9.07;;
23680;SDS011;62915;50.832;4.462;2023-03-03T20:39:34;12.88;;;8.52;;
23680;SDS011;62915;50.832;4.462;2023-03-03T20:54:02;13.55;;;9.77;;
23680;SDS011;62915;50.832;4.462;2023-03-03T20:59:16;11.10;;;8.93;;
23680;SDS011;62915;50.832;4.462;2023-03-03T21:04:45;11.63;;;9.63;;
23680;SDS011;62915;50.832;4.462;2023-03-03T21:07:33;12.25;;;10.63;;
23680;SDS011;62915;50.832;4.462;2023-03-03T21:10:14;15.00;;;11.05;;
23680;SDS011;62915;50.832;4.462;2023-03-03T21:12:49;14.05;;;11.68;;
23680;SDS011;62915;50.832;4.462;2023-03-03T21:15:24;13.75;;;11.80;;
23680;SDS011;62915;50.832;4.462;2023-03-03T21:17:50;13.15;;;11.45;;
23680;SDS011;62915;50.832;4.462;2023-03-03T21:20:29;14.95;;;12.75;;
23680;SDS011;62915;50.832;4.462;2023-03-03T21:22:57;12.95;;;11.65;;
23680;SDS011;62915;50.832;4.462;2023-03-03T21:28:13;14.05;;;11.55;;
23680;SDS011;62915;50.832;4.462;2023-03-03T21:33:42;14.55;;;12.65;;
23680;SDS011;62915;50.832;4.462;2023-03-03T21:38:56;13.32;;;12.02;;
23680;SDS011;62915;50.832;4.462;2023-03-03T21:41:23;15.05;;;13.15;;
23680;SDS011;62915;50.832;4.462;2023-03-03T21:43:50;15.05;;;12.70;;
23680;SDS011;62915;50.832;4.462;2023-03-03T21:46:23;16.40;;;13.48;;
23680;SDS011;62915;50.832;4.462;2023-03-03T21:48:49;15.50;;;12.73;;
23680;SDS011;62915;50.832;4.462;2023-03-03T21:51:16;15.13;;;13.27;;
23680;SDS011;62915;50.832;4.462;2023-03-03T21:53:44;14.50;;;13.00;;